Pagrindinis puslapis
METAR-TAF:

METAR-TAF

Oro uostai :

Tulča, Rumunija

platuma: 45-11N, ilguma: 028-49E, Aukštis: 4 m

Dabartinis oras

Ataskaita buvo paskelbta 24 minutes, ne 17:30 UTC
Vėjas 4 kt iš Pietų/Pietryčių, svyruoja nuo Pietryčių ir Pietų
Temperatūra 17°C
Drėgmė 48%
Slėgis 1023 hPa
Matomumas 10 km arba daugiau

METAR: LRTC 151730Z AUTO 16004KT 130V190 9999 NCD 17/06 Q1023

Laikas: 20:54 (17:54 UTC)

Prognozė

Ataskaita buvo paskelbta 3 valandos ir 54 minutes, ne 14:00 UTC
Prognozė galioja nuo 15 metu 15 UTC su 15 metu 24 UTC
Vėjas 7 kt iš Šiaurės
Matomumas 10 km arba daugiau
nėra debesų žemiau 1500 m ir nėra kamuolinių lietaus debesų
Tapsmas
nuo 15 metu 16 UTC su 15 metu 18 UTC
Vėjas 10 kt iš Pietų

TAF: LRTC 151400Z 1515/1524 01007KT CAVOK BECMG 1516/1518 17010KT

Orai ataskaitas ir orų prognozės (METAR, TAF).

turimą stotys yra geltonos ir raudonos taškus žemėlapyje.

Perkelti pele per norėdami pamatyti stoties vardą.

Tada spustelėkite, norėdami matyti oro stebėjimo ir prognozės.

Norėdami pakeisti žemėlapį: spustelėkite ant žalios mygtukų su juodo kryžiaus žemyn,; žalią mygtuką su brūkšneliu, jei norite nutolinti; arba žalių rodyklių gretimoms žemėlapius.


METAR-TAF: